createdAt,value
2023-01-03T00:01:47.432Z,102134.69
2023-01-03T00:04:16.499Z,102124.69
2023-01-03T00:06:46.424Z,102131.50
2023-01-03T00:09:19.428Z,102111.31
2023-01-03T00:12:07.090Z,102134.06
2023-01-03T00:14:38.390Z,102134.81
2023-01-03T00:17:07.976Z,102136.25
2023-01-03T00:19:40.252Z,101982.31
2023-01-03T00:22:09.292Z,102139.56
2023-01-03T00:24:39.184Z,102130.28
2023-01-03T00:27:07.827Z,102135.38
2023-01-03T00:29:36.662Z,102133.53
2023-01-03T00:32:05.704Z,102134.38
2023-01-03T00:34:34.767Z,102132.34
2023-01-03T00:37:05.260Z,102136.00
2023-01-03T00:39:34.762Z,101991.69
2023-01-03T00:42:04.679Z,102128.22
2023-01-03T00:44:33.330Z,102125.78
2023-01-03T00:47:01.675Z,102118.94
2023-01-03T00:49:30.079Z,102122.13
2023-01-03T00:51:58.636Z,102105.44
2023-01-03T00:54:27.205Z,102127.00
2023-01-03T00:56:55.560Z,102128.09
2023-01-03T00:59:27.655Z,102128.22
2023-01-03T01:01:57.829Z,102099.72
2023-01-03T01:04:28.619Z,102137.88
2023-01-03T01:06:59.717Z,102111.78
2023-01-03T01:09:30.326Z,102133.00
2023-01-03T01:11:58.957Z,102127.66
2023-01-03T01:14:29.903Z,102127.53
2023-01-03T01:17:00.067Z,102099.47
2023-01-03T01:19:30.280Z,102141.53
2023-01-03T01:21:59.147Z,102150.03
2023-01-03T01:24:27.949Z,102140.41
2023-01-03T01:26:56.615Z,102143.13
2023-01-03T01:29:25.412Z,102119.97
2023-01-03T01:31:55.186Z,102142.38
2023-01-03T01:34:23.631Z,102140.69
2023-01-03T01:36:52.896Z,102147.75
2023-01-03T01:39:24.923Z,102147.03
2023-01-03T01:42:19.420Z,102158.72
2023-01-03T01:44:53.327Z,102157.13
2023-01-03T01:47:34.923Z,102156.88
2023-01-03T01:50:13.620Z,102157.75
2023-01-03T01:52:46.224Z,102001.75
2023-01-03T01:55:19.891Z,102139.69
2023-01-03T01:57:48.517Z,102170.31
2023-01-03T02:00:19.309Z,102176.88
2023-01-03T02:02:53.306Z,102130.19
2023-01-03T02:05:23.287Z,102167.75
2023-01-03T02:07:53.743Z,102151.91
2023-01-03T02:10:43.888Z,102162.88
2023-01-03T02:13:24.929Z,102165.06
2023-01-03T02:16:19.161Z,102172.13
2023-01-03T02:18:58.332Z,102138.59
2023-01-03T02:22:02.010Z,102170.19
2023-01-03T02:25:07.953Z,102172.38
2023-01-03T02:28:03.834Z,102140.78
2023-01-03T02:30:40.998Z,102168.94
2023-01-03T02:33:22.227Z,102129.44
2023-01-03T02:36:01.842Z,102166.50
2023-01-03T02:38:40.926Z,102139.31
2023-01-03T02:41:20.107Z,102163.59
2023-01-03T02:43:55.873Z,102168.47
2023-01-03T02:46:30.575Z,102168.47
2023-01-03T02:49:03.362Z,102168.34
2023-01-03T02:51:37.268Z,102134.09
2023-01-03T02:54:10.601Z,102040.75
2023-01-03T02:56:44.277Z,102168.84
2023-01-03T02:59:15.862Z,102140.53
2023-01-03T03:01:51.255Z,102162.50
2023-01-03T03:04:21.355Z,102168.59
2023-01-03T03:07:03.140Z,102037.22
2023-01-03T03:09:32.811Z,102156.84
2023-01-03T03:12:20.544Z,102162.59
2023-01-03T03:14:52.576Z,102151.50
2023-01-03T03:17:29.547Z,102164.53
2023-01-03T03:20:16.456Z,102157.47
2023-01-03T03:23:05.974Z,102131.84
2023-01-03T03:25:39.403Z,102155.75
2023-01-03T03:28:40.173Z,102156.63
2023-01-03T03:31:13.361Z,102161.25
2023-01-03T03:33:48.585Z,102009.41
2023-01-03T03:36:24.449Z,102136.47
2023-01-03T03:38:53.231Z,102167.34
2023-01-03T03:41:46.125Z,102164.78
2023-01-03T03:44:43.307Z,102176.47
2023-01-03T03:47:19.605Z,102162.69
2023-01-03T03:49:52.844Z,102173.41
2023-01-03T03:52:26.310Z,102164.53
2023-01-03T03:54:59.729Z,102014.00
2023-01-03T03:57:33.318Z,102164.28
2023-01-03T04:00:07.450Z,102132.84
2023-01-03T04:02:42.968Z,102138.19
2023-01-03T04:05:17.136Z,102161.84
2023-01-03T04:07:45.757Z,102154.78
2023-01-03T04:10:20.271Z,102161.59
2023-01-03T04:12:49.832Z,102150.00
2023-01-03T04:15:18.878Z,102154.16
2023-01-03T04:17:47.336Z,102155.75
2023-01-03T04:20:17.177Z,102167.94
2023-01-03T04:22:45.616Z,102174.75
2023-01-03T04:25:14.107Z,102171.13
2023-01-03T04:27:42.403Z,102162.94
2023-01-03T04:30:12.639Z,102164.66
2023-01-03T04:32:41.152Z,102170.13
2023-01-03T04:35:10.213Z,102168.56
2023-01-03T04:37:39.988Z,102169.41
2023-01-03T04:40:09.328Z,102175.50
2023-01-03T04:42:55.165Z,102174.66
2023-01-03T04:45:23.584Z,102175.13
2023-01-03T04:47:54.468Z,102167.19
2023-01-03T04:50:22.893Z,102179.00
2023-01-03T04:52:52.691Z,102190.69
2023-01-03T04:55:21.133Z,102192.53
2023-01-03T04:57:49.512Z,102190.59
2023-01-03T05:00:18.438Z,102188.88
2023-01-03T05:02:59.881Z,102195.09
2023-01-03T05:05:29.107Z,102197.19
2023-01-03T05:07:58.875Z,102200.41
2023-01-03T05:10:27.303Z,102194.75
2023-01-03T05:13:00.911Z,102197.19
2023-01-03T05:15:29.819Z,102197.78
2023-01-03T05:17:58.213Z,102198.13
2023-01-03T05:20:44.057Z,102202.03
2023-01-03T05:23:33.258Z,102197.66
2023-01-03T05:26:04.012Z,102170.31
2023-01-03T05:28:32.574Z,102201.41
2023-01-03T05:31:01.504Z,102207.88
2023-01-03T05:33:31.104Z,102208.94
2023-01-03T05:36:00.541Z,102209.81
2023-01-03T05:38:30.357Z,102206.16
2023-01-03T05:40:58.880Z,102206.38
2023-01-03T05:43:27.229Z,102211.84
2023-01-03T05:45:55.807Z,102211.13
2023-01-03T05:48:24.407Z,102211.13
2023-01-03T05:50:53.080Z,102204.41
2023-01-03T05:53:21.445Z,102215.47
2023-01-03T05:55:51.244Z,102219.09
2023-01-03T05:58:20.781Z,102231.66
2023-01-03T06:00:49.056Z,102232.88
2023-01-03T06:03:18.170Z,102238.47
2023-01-03T06:05:50.444Z,102245.88
2023-01-03T06:08:19.870Z,102236.06
2023-01-03T06:10:48.211Z,102245.34
2023-01-03T06:13:19.684Z,102249.22
2023-01-03T06:16:08.113Z,102254.16
2023-01-03T06:18:35.989Z,102258.19
2023-01-03T06:21:04.800Z,102276.91
2023-01-03T06:23:33.476Z,102268.53
2023-01-03T06:26:04.506Z,102275.00
2023-01-03T06:28:34.373Z,102289.47
2023-01-03T06:31:02.882Z,102279.94
2023-01-03T06:33:31.277Z,102289.56
2023-01-03T06:36:03.552Z,102158.25
2023-01-03T06:38:31.882Z,102286.59
2023-01-03T06:41:00.908Z,102291.41
2023-01-03T06:43:29.632Z,102280.81
2023-01-03T06:46:23.518Z,102295.06
2023-01-03T06:49:09.369Z,102293.34
2023-01-03T06:51:55.572Z,102301.59
2023-01-03T06:54:26.310Z,102276.91
2023-01-03T06:56:55.248Z,102313.78
2023-01-03T06:59:25.182Z,102284.91
2023-01-03T07:01:56.312Z,102303.63
2023-01-03T07:04:26.358Z,102266.00
2023-01-03T07:06:54.973Z,102300.75
2023-01-03T07:09:24.405Z,102296.59
2023-01-03T07:11:52.925Z,102303.13
2023-01-03T07:14:20.365Z,102304.41
2023-01-03T07:16:50.337Z,102298.22
2023-01-03T07:19:21.497Z,102265.47
2023-01-03T07:21:49.945Z,102302.59
2023-01-03T07:24:19.765Z,102315.75
2023-01-03T07:26:48.310Z,102316.41
2023-01-03T07:29:16.703Z,102323.22
2023-01-03T07:31:45.191Z,102320.53
2023-01-03T07:34:13.522Z,102326.91
2023-01-03T07:36:43.311Z,102327.00
2023-01-03T07:39:12.650Z,102327.13
2023-01-03T07:41:58.397Z,102333.44
2023-01-03T07:44:27.962Z,102337.94
2023-01-03T07:46:56.418Z,102336.22
2023-01-03T07:49:25.805Z,102336.44
2023-01-03T07:51:55.697Z,102333.09
2023-01-03T07:54:24.160Z,102329.69
2023-01-03T07:56:52.545Z,102321.97
2023-01-03T07:59:20.934Z,102339.09
2023-01-03T08:01:49.543Z,102342.53
2023-01-03T08:04:18.366Z,102342.84
2023-01-03T08:06:46.829Z,102351.63
2023-01-03T08:09:34.459Z,102353.34
2023-01-03T08:12:20.048Z,102360.72
2023-01-03T08:14:48.511Z,102370.03
2023-01-03T08:17:16.769Z,102372.69
2023-01-03T08:19:46.342Z,102370.03
2023-01-03T08:22:14.686Z,102378.03
2023-01-03T08:24:44.502Z,102386.06
2023-01-03T08:27:12.959Z,102385.97
2023-01-03T08:29:41.394Z,102388.53
2023-01-03T08:32:09.971Z,102398.28
2023-01-03T08:34:41.959Z,102369.16
2023-01-03T08:37:13.336Z,102397.53
2023-01-03T08:39:48.343Z,102405.44
2023-01-03T08:42:21.171Z,102401.06
2023-01-03T08:44:51.064Z,102405.44
2023-01-03T08:47:19.725Z,102403.53
2023-01-03T08:49:49.259Z,102409.72
2023-01-03T08:52:17.752Z,102413.91
2023-01-03T08:54:47.687Z,102410.16
2023-01-03T08:57:16.050Z,102409.41
2023-01-03T08:59:45.425Z,102418.09
2023-01-03T09:02:14.801Z,102421.50
2023-01-03T09:04:44.191Z,102418.72
2023-01-03T09:07:13.458Z,102422.38
2023-01-03T09:09:42.915Z,102425.59
2023-01-03T09:12:14.787Z,102435.97
2023-01-03T09:14:44.140Z,102434.25
2023-01-03T09:17:13.449Z,102438.44
2023-01-03T09:19:43.034Z,102431.13
2023-01-03T09:22:12.472Z,102444.31
2023-01-03T09:24:41.990Z,102450.50
2023-01-03T09:27:11.128Z,102451.59
2023-01-03T09:29:41.939Z,102458.53
2023-01-03T09:32:11.353Z,102454.25
2023-01-03T09:34:40.734Z,102457.78
2023-01-03T09:37:10.090Z,102463.78
2023-01-03T09:39:41.095Z,102463.91
2023-01-03T09:42:33.858Z,102463.69
2023-01-03T09:45:05.676Z,102477.81
2023-01-03T09:47:38.715Z,102473.00
2023-01-03T09:50:39.311Z,102475.38
2023-01-03T09:53:21.728Z,102479.31
2023-01-03T09:56:11.530Z,102478.03
2023-01-03T09:58:58.293Z,102480.91
2023-01-03T10:01:56.036Z,102475.47
2023-01-03T10:05:02.990Z,102477.81
2023-01-03T10:07:50.180Z,102467.22
2023-01-03T10:10:27.248Z,102473.00
2023-01-03T10:13:16.183Z,102471.94
2023-01-03T10:15:58.495Z,102471.28
2023-01-03T10:18:52.610Z,102470.88
2023-01-03T10:21:33.786Z,102437.81
2023-01-03T10:24:03.639Z,102467.75
2023-01-03T10:26:35.365Z,102459.94
2023-01-03T10:29:04.744Z,102457.06
2023-01-03T10:31:58.504Z,102453.41
2023-01-03T10:34:29.337Z,102462.94
2023-01-03T10:36:58.704Z,102465.72
2023-01-03T10:39:32.740Z,102430.53
2023-01-03T10:42:02.319Z,102471.94
2023-01-03T10:44:32.963Z,102461.97
2023-01-03T10:47:12.042Z,102464.44
2023-01-03T10:49:48.289Z,102458.88
2023-01-03T10:52:23.203Z,102462.06
2023-01-03T10:54:55.980Z,102458.31
2023-01-03T10:57:44.783Z,102409.72
2023-01-03T11:00:25.249Z,102464.53
2023-01-03T11:02:54.770Z,102458.31
2023-01-03T11:05:27.191Z,102461.09
2023-01-03T11:08:00.213Z,102432.22
2023-01-03T11:10:38.279Z,102308.50
2023-01-03T11:13:23.994Z,102449.94
2023-01-03T11:15:55.486Z,102442.66
2023-01-03T11:18:24.291Z,102451.44
2023-01-03T11:20:58.652Z,102446.81
2023-01-03T11:23:37.553Z,102391.69
2023-01-03T11:26:19.737Z,102443.03
2023-01-03T11:28:58.664Z,102434.03
2023-01-03T11:31:39.672Z,102398.75
2023-01-03T11:34:25.708Z,102434.47
2023-01-03T11:37:01.852Z,102401.38
2023-01-03T11:39:54.076Z,102399.22
2023-01-03T11:42:40.075Z,102428.81
2023-01-03T11:45:44.753Z,102417.88
2023-01-03T11:48:42.181Z,102432.03
2023-01-03T11:51:16.940Z,102425.06
2023-01-03T11:54:03.171Z,102419.59
2023-01-03T11:56:35.268Z,102389.66
2023-01-03T11:59:42.712Z,102426.22
2023-01-03T12:02:52.811Z,102426.63
2023-01-03T12:05:41.920Z,102426.41
2023-01-03T12:08:33.049Z,102421.25
2023-01-03T12:11:10.739Z,102423.09
2023-01-03T12:13:45.172Z,102413.97
2023-01-03T12:16:23.587Z,102381.72
2023-01-03T12:18:57.256Z,102408.56
2023-01-03T12:21:35.983Z,102371.19
2023-01-03T12:24:13.287Z,102277.66
2023-01-03T12:26:45.429Z,102211.94
2023-01-03T12:29:20.343Z,102388.53
2023-01-03T12:31:54.955Z,102363.09
2023-01-03T12:34:31.552Z,102396.94
2023-01-03T12:37:09.503Z,102379.88
2023-01-03T12:39:48.804Z,102375.00
2023-01-03T12:42:28.653Z,102348.72
2023-01-03T12:45:04.791Z,102349.03
2023-01-03T12:47:40.861Z,102384.75
2023-01-03T12:50:18.479Z,102356.91
2023-01-03T12:52:52.507Z,102381.84
2023-01-03T12:55:24.801Z,102378.06
2023-01-03T12:58:20.865Z,102377.34
2023-01-03T13:00:58.482Z,102384.75
2023-01-03T13:03:31.221Z,102344.59
2023-01-03T13:06:03.297Z,102376.22
2023-01-03T13:08:37.654Z,102370.72
2023-01-03T13:11:09.666Z,102369.03
2023-01-03T13:13:55.655Z,102338.38
2023-01-03T13:16:44.942Z,102310.00
2023-01-03T13:19:46.652Z,102371.69
2023-01-03T13:22:45.251Z,102361.81
2023-01-03T13:25:36.344Z,102356.47
2023-01-03T13:28:24.890Z,102339.22
2023-01-03T13:31:37.931Z,102358.53
2023-01-03T13:34:34.588Z,102355.47
2023-01-03T13:37:27.447Z,102354.84
2023-01-03T13:41:16.616Z,102347.66
2023-01-03T13:43:23.303Z,102359.88
2023-01-03T13:45:59.423Z,102342.44
2023-01-03T13:48:54.934Z,102346.34
2023-01-03T13:51:43.256Z,102315.50
2023-01-03T13:54:58.177Z,102341.72
2023-01-03T13:57:33.962Z,102341.59
2023-01-03T14:00:11.009Z,102336.13
2023-01-03T14:03:02.709Z,102339.66
2023-01-03T14:06:06.661Z,102342.47
2023-01-03T14:09:08.771Z,102341.59
2023-01-03T14:12:03.901Z,102339.91
2023-01-03T14:14:35.965Z,102243.56
2023-01-03T14:17:11.143Z,102352.09
2023-01-03T14:19:48.164Z,102348.94
2023-01-03T14:22:31.196Z,102356.75
2023-01-03T14:25:02.503Z,102350.31
2023-01-03T14:27:37.444Z,102346.50
2023-01-03T14:30:21.016Z,102350.31
2023-01-03T14:32:51.005Z,102347.75
2023-01-03T14:35:42.191Z,102352.13
2023-01-03T14:38:24.925Z,102354.81
2023-01-03T14:40:55.012Z,102361.16
2023-01-03T14:43:23.976Z,102367.00
2023-01-03T14:45:55.531Z,102373.59
2023-01-03T14:48:26.029Z,102377.75
2023-01-03T14:50:57.119Z,102378.50
2023-01-03T14:53:27.805Z,102375.31
2023-01-03T14:55:58.590Z,102377.50
2023-01-03T14:58:34.384Z,102379.44
2023-01-03T15:01:07.433Z,102346.97
2023-01-03T15:03:39.192Z,102388.22
2023-01-03T15:06:20.999Z,102380.41
2023-01-03T15:08:51.653Z,102363.56
2023-01-03T15:11:30.768Z,102352.34
2023-01-03T15:14:04.306Z,102389.31
2023-01-03T15:16:35.978Z,102362.72
2023-01-03T15:19:16.397Z,102391.75
2023-01-03T15:21:48.417Z,102393.34
2023-01-03T15:24:21.527Z,102393.13
2023-01-03T15:26:54.082Z,102386.03
2023-01-03T15:29:24.403Z,102398.25
2023-01-03T15:31:58.287Z,102394.34
2023-01-03T15:34:38.944Z,102394.34
2023-01-03T15:37:16.698Z,102406.06
2023-01-03T15:39:49.230Z,102370.66
2023-01-03T15:42:50.236Z,102261.50
2023-01-03T15:45:27.444Z,102240.25
2023-01-03T15:47:59.517Z,102394.84
2023-01-03T15:50:41.311Z,102396.53
2023-01-03T15:53:22.447Z,102359.41
2023-01-03T15:55:54.707Z,102405.31
2023-01-03T15:58:26.978Z,102407.25
2023-01-03T16:00:56.587Z,102407.63
2023-01-03T16:03:27.571Z,102420.19
2023-01-03T16:05:56.268Z,102416.75
2023-01-03T16:08:32.776Z,102417.63
2023-01-03T16:11:03.550Z,102370.09
2023-01-03T16:13:40.378Z,102416.38
2023-01-03T16:16:11.415Z,102423.81
2023-01-03T16:18:45.811Z,102280.38
2023-01-03T16:21:15.417Z,102419.63
2023-01-03T16:23:45.499Z,102424.03
2023-01-03T16:26:15.187Z,102427.81
2023-01-03T16:28:43.881Z,102424.50
2023-01-03T16:31:16.023Z,102399.94
2023-01-03T16:33:47.632Z,102427.56
2023-01-03T16:36:27.523Z,102426.94
2023-01-03T16:39:02.828Z,102434.34
2023-01-03T16:41:31.536Z,102439.09
2023-01-03T16:44:00.429Z,102453.34
2023-01-03T16:46:30.640Z,102303.00
2023-01-03T16:49:01.106Z,102445.00
2023-01-03T16:51:33.201Z,102456.94
2023-01-03T16:54:06.245Z,102451.91
2023-01-03T16:56:38.564Z,102445.06
2023-01-03T16:59:11.064Z,102447.00
2023-01-03T17:01:40.544Z,102443.16
2023-01-03T17:04:09.303Z,102445.22
2023-01-03T17:06:40.545Z,102450.69
2023-01-03T17:09:17.524Z,102455.41
2023-01-03T17:11:48.022Z,102455.63
2023-01-03T17:14:19.671Z,102458.44
2023-01-03T17:16:48.586Z,102419.91
2023-01-03T17:22:22.950Z,102459.59
2023-01-03T17:24:53.606Z,102462.97
2023-01-03T17:27:31.893Z,102478.94
2023-01-03T17:30:04.930Z,102448.03
2023-01-03T17:32:34.185Z,102472.03
2023-01-03T17:35:05.070Z,102479.69
2023-01-03T17:37:51.388Z,102478.84
2023-01-03T17:40:33.237Z,102360.94
2023-01-03T17:43:03.093Z,102474.69
2023-01-03T17:45:48.961Z,102484.56
2023-01-03T17:48:35.253Z,102480.50
2023-01-03T17:51:03.881Z,102479.00
2023-01-03T17:53:33.313Z,102477.28
2023-01-03T17:56:04.772Z,102483.69
2023-01-03T17:58:36.763Z,102424.06
2023-01-03T18:01:08.741Z,102489.59
2023-01-03T18:03:38.727Z,102495.63
2023-01-03T18:06:13.862Z,102490.25
2023-01-03T18:08:44.445Z,102498.69
2023-01-03T18:11:18.093Z,102493.56
2023-01-03T18:13:48.612Z,102494.09
2023-01-03T18:16:18.960Z,102495.59
2023-01-03T18:18:49.274Z,102490.66
2023-01-03T18:21:21.637Z,102495.13
2023-01-03T18:23:56.110Z,102495.53
2023-01-03T18:26:31.050Z,102482.94
2023-01-03T18:29:00.301Z,102504.88
2023-01-03T18:31:29.754Z,102501.75
2023-01-03T18:33:59.209Z,102501.25
2023-01-03T18:36:34.754Z,102498.22
2023-01-03T18:39:07.817Z,102471.56
2023-01-03T18:41:37.831Z,102506.59
2023-01-03T18:44:07.657Z,102513.28
2023-01-03T18:46:36.891Z,102509.56
2023-01-03T18:49:05.487Z,102510.00
2023-01-03T18:51:33.883Z,102508.84
2023-01-03T18:54:03.898Z,102512.47
2023-01-03T18:56:36.120Z,102370.38
2023-01-03T18:59:14.261Z,102493.44
2023-01-03T19:01:43.214Z,102519.75
2023-01-03T19:04:12.224Z,102524.63
2023-01-03T19:06:45.918Z,102474.38
2023-01-03T19:09:21.018Z,102526.22
2023-01-03T19:11:50.691Z,102524.59
2023-01-03T19:14:21.574Z,102525.47
2023-01-03T19:16:49.979Z,102527.19
2023-01-03T19:19:18.321Z,102519.28
2023-01-03T19:21:48.063Z,102504.41
2023-01-03T19:24:23.938Z,102497.94
2023-01-03T19:26:56.038Z,102504.47
2023-01-03T19:29:36.698Z,102495.69
2023-01-03T19:32:12.738Z,102526.78
2023-01-03T19:34:41.102Z,102529.13
2023-01-03T19:37:10.641Z,102533.81
2023-01-03T19:39:39.532Z,102531.69
2023-01-03T19:42:30.800Z,102536.06
2023-01-03T19:45:02.080Z,102531.38
2023-01-03T19:47:30.553Z,102530.88
2023-01-03T19:50:06.321Z,102534.69
2023-01-03T19:52:39.450Z,102548.47
2023-01-03T19:55:10.334Z,102543.31
2023-01-03T19:57:41.263Z,102551.41
2023-01-03T20:00:19.301Z,102556.56
2023-01-03T20:02:48.625Z,102553.13
2023-01-03T20:05:19.771Z,102518.16
2023-01-03T20:07:49.361Z,102558.09
2023-01-03T20:10:20.969Z,102551.06
2023-01-03T20:12:50.808Z,102556.38
2023-01-03T20:15:24.376Z,102526.34
2023-01-03T20:17:52.982Z,102550.56
2023-01-03T20:20:21.924Z,102553.75
2023-01-03T20:23:04.526Z,102549.38
2023-01-03T20:25:37.256Z,102552.28
2023-01-03T20:28:06.698Z,102548.78
2023-01-03T20:30:38.946Z,102552.13
2023-01-03T20:33:07.418Z,102551.69
2023-01-03T20:38:28.427Z,102551.03
2023-01-03T20:41:00.810Z,102565.19
2023-01-03T20:43:29.287Z,102563.66
2023-01-03T20:46:00.589Z,102534.00
2023-01-03T20:48:29.357Z,102567.94
2023-01-03T20:50:57.982Z,102562.72
2023-01-03T20:53:27.931Z,102547.84
2023-01-03T20:55:56.324Z,102569.50
2023-01-03T20:58:26.388Z,102537.69
2023-01-03T21:01:02.035Z,102560.91
2023-01-03T21:03:35.244Z,102566.31
2023-01-03T21:06:04.571Z,102564.06
2023-01-03T21:08:50.394Z,102563.59
2023-01-03T21:11:18.792Z,102569.47
2023-01-03T21:13:47.172Z,102573.84
2023-01-03T21:16:30.873Z,102588.34
2023-01-03T21:19:05.855Z,102569.69
2023-01-03T21:21:35.041Z,102560.78
2023-01-03T21:24:03.440Z,102566.34
2023-01-03T21:26:31.995Z,102565.63
2023-01-03T21:29:01.095Z,102566.50
2023-01-03T21:31:29.819Z,102568.53
2023-01-03T21:33:58.215Z,102575.22
2023-01-03T21:36:29.915Z,102569.03
2023-01-03T21:38:59.019Z,102572.50
2023-01-03T21:41:28.831Z,102540.44
2023-01-03T21:43:57.932Z,102574.53
2023-01-03T21:46:27.376Z,102527.34
2023-01-03T21:48:56.471Z,102572.03
2023-01-03T21:51:37.337Z,102575.38
2023-01-03T21:54:09.626Z,102578.13
2023-01-03T21:56:45.709Z,102575.78
2023-01-03T21:59:16.853Z,102577.31
2023-01-03T22:02:03.422Z,102592.53
2023-01-03T22:04:32.257Z,102586.72
2023-01-03T22:07:02.165Z,102588.44
2023-01-03T22:09:51.035Z,102585.72
2023-01-03T22:12:21.893Z,102590.09
2023-01-03T22:14:50.320Z,102592.75
2023-01-03T22:17:18.617Z,102588.59
2023-01-03T22:19:46.997Z,102580.63
2023-01-03T22:22:15.472Z,102584.84
2023-01-03T22:24:45.282Z,102583.28
2023-01-03T22:27:13.649Z,102587.97
2023-01-03T22:29:42.200Z,102589.75
2023-01-03T22:32:10.830Z,102600.97
2023-01-03T22:34:40.336Z,102597.34
2023-01-03T22:37:08.761Z,102598.38
2023-01-03T22:39:37.200Z,102606.44
2023-01-03T22:42:07.131Z,102605.88
2023-01-03T22:44:35.566Z,102610.63
2023-01-03T22:47:04.493Z,102617.28
2023-01-03T22:49:33.121Z,102613.91
2023-01-03T22:52:01.540Z,102614.84
2023-01-03T22:54:30.015Z,102622.97
2023-01-03T22:56:58.762Z,102617.09
2023-01-03T22:59:30.447Z,102619.75
2023-01-03T23:01:59.279Z,102622.63
2023-01-03T23:04:28.410Z,102625.28
2023-01-03T23:06:57.117Z,102622.53
2023-01-03T23:09:26.279Z,102578.03
2023-01-03T23:12:11.795Z,102622.00
2023-01-03T23:14:41.603Z,102620.56
2023-01-03T23:17:27.311Z,102623.38
2023-01-03T23:19:55.694Z,102618.78
2023-01-03T23:22:23.991Z,102625.88
2023-01-03T23:24:53.453Z,102621.78
2023-01-03T23:27:21.789Z,102621.06
2023-01-03T23:29:51.602Z,102623.25
2023-01-03T23:32:20.119Z,102619.88
2023-01-03T23:34:48.644Z,102616.28
2023-01-03T23:37:17.016Z,102617.09
2023-01-03T23:39:45.506Z,102615.38
2023-01-03T23:42:13.880Z,102614.56
2023-01-03T23:44:42.286Z,102617.78
2023-01-03T23:47:12.857Z,102618.84
2023-01-03T23:49:41.552Z,102617.28
2023-01-03T23:52:09.957Z,102618.50
2023-01-03T23:54:38.383Z,102620.66
2023-01-03T23:57:06.699Z,102619.06
2023-01-03T23:59:35.177Z,102613.88
